Time;durP1;ratioP1;P1;durP2;ratioP2;P2;SDS_P1;SDS_P2;PMS_P1;PMS_P2;Temp;Humidity;BMP_temperature;BMP_pressure;BME280_temperature;BME280_humidity;BME280_pressure;Samples;Min_cycle;Max_cycle;Signal;HPM_P1;HPM_P2
2023/01/13 00:00:33;;;;;;;;;;;;;;;5.80;98.87;98400.59;221548;1279;22572;-72
2023/01/13 00:05:36;;;;;;;1.60;1.40;;;;;;;5.81;98.33;98391.98;221359;1279;22628;-73
2023/01/13 00:10:41;;;;;;;1.50;0.80;;;;;;;5.85;98.36;98384.44;221349;1277;26460;-74
2023/01/13 00:15:43;;;;;;;2.90;0.80;;;;;;;5.93;98.25;98386.08;221464;1275;22591;-74
2023/01/13 00:20:46;;;;;;;2.50;0.80;;;;;;;6.00;97.86;98387.66;221427;1275;22553;-74
2023/01/13 00:25:49;;;;;;;1.80;0.90;;;;;;;6.07;97.16;98384.81;221567;1279;22575;-73
2023/01/13 00:31:11;;;;;;;2.10;0.70;;;;;;;6.11;96.78;98383.70;221384;1279;26417;-74
2023/01/13 00:36:19;;;;;;;1.80;1.00;;;;;;;6.10;96.73;98384.86;221523;1278;25038;-73
2023/01/13 00:41:23;;;;;;;1.40;0.70;;;;;;;6.07;96.13;98386.45;221729;1275;23936;-74
2023/01/13 00:46:25;;;;;;;4.10;1.20;;;;;;;6.06;95.33;98383.01;221385;1278;24401;-74
2023/01/13 00:51:36;;;;;;;3.00;0.70;;;;;;;6.08;95.57;98384.76;221398;1279;22539;-73
2023/01/13 00:56:41;;;;;;;2.10;0.70;;;;;;;6.06;95.22;98381.30;221495;1278;24267;-73
2023/01/13 01:01:47;;;;;;;1.70;1.10;;;;;;;5.99;95.37;98380.19;221468;1279;22524;-73
2023/01/13 01:06:50;;;;;;;1.90;1.00;;;;;;;5.93;95.37;98382.14;221418;1278;22554;-74
2023/01/13 01:12:13;;;;;;;1.90;1.00;;;;;;;5.88;95.30;98383.89;221465;1279;22718;-75
2023/01/13 01:17:21;;;;;;;2.20;0.90;;;;;;;5.87;95.48;98375.50;221390;1275;22543;-74
2023/01/13 01:22:40;;;;;;;1.50;1.00;;;;;;;5.90;95.66;98364.33;221517;1279;23059;-73
2023/01/13 01:27:48;;;;;;;3.60;1.30;;;;;;;5.97;95.41;98360.67;221628;1266;22615;-75
2023/01/13 01:33:04;;;;;;;2.40;0.90;;;;;;;6.05;95.38;98351.46;221429;1269;24216;-75
2023/01/13 01:38:12;;;;;;;1.40;1.20;;;;;;;6.10;95.08;98344.91;221368;1269;22652;-73
2023/01/13 01:44:05;;;;;;;;;;;;;;;6.11;94.86;98347.37;221485;1279;22636;-73
2023/01/13 01:49:31;;;;;;;2.70;1.30;;;;;;;6.07;94.43;98341.94;221307;1279;22568;-74
2023/01/13 01:54:43;;;;;;;2.50;1.20;;;;;;;6.03;94.59;98336.32;221482;1278;25395;-74
2023/01/13 02:00:01;;;;;;;2.40;1.20;;;;;;;6.00;94.21;98330.52;221390;1279;23799;-73
2023/01/13 02:05:25;;;;;;;2.10;1.50;;;;;;;5.99;94.14;98319.52;222338;1279;24830;-75
2023/01/13 02:10:31;;;;;;;1.60;1.20;;;;;;;5.96;94.35;98311.26;221369;1278;23055;-72
2023/01/13 02:15:54;;;;;;;2.10;1.20;;;;;;;5.91;93.79;98306.05;221403;1278;22840;-74
2023/01/13 02:21:47;;;;;;;2.70;1.40;;;;;;;5.90;94.10;98295.63;221262;1278;22594;-74
2023/01/13 02:27:11;;;;;;;2.50;1.40;;;;;;;5.88;93.75;98289.26;221274;1279;22546;-73
2023/01/13 02:32:37;;;;;;;2.40;1.50;;;;;;;5.90;94.05;98280.73;221618;1275;22651;-73
2023/01/13 02:37:43;;;;;;;2.20;1.30;;;;;;;5.96;93.96;98269.63;221436;1278;22599;-74
2023/01/13 02:49:03;;;;;;;3.60;1.50;;;;;;;6.15;93.65;98273.90;221465;1263;22530;-73
2023/01/13 02:54:13;;;;;;;2.00;1.40;;;;;;;6.24;93.06;98278.23;221685;1279;22531;-74
2023/01/13 02:59:18;;;;;;;3.40;1.60;;;;;;;6.28;92.88;98269.17;221640;1279;24231;-72
2023/01/13 03:04:56;;;;;;;2.60;1.50;;;;;;;6.27;92.53;98266.88;221484;1278;25363;-74
2023/01/13 03:10:50;;;;;;;3.50;1.80;;;;;;;6.23;92.79;98268.39;221444;1279;23013;-73
2023/01/13 03:16:16;;;;;;;3.70;1.70;;;;;;;6.19;92.27;98269.15;221432;1279;22656;-72
2023/01/13 03:21:28;;;;;;;4.30;2.10;;;;;;;6.21;92.48;98262.70;221407;1278;22635;-74
2023/01/13 03:26:40;;;;;;;5.20;2.20;;;;;;;6.21;92.30;98262.61;221527;1279;22536;-73
2023/01/13 03:32:26;;;;;;;3.50;2.20;;;;;;;6.21;92.06;98262.40;221353;1279;23759;-74
2023/01/13 03:37:41;;;;;;;2.90;1.70;;;;;;;6.18;92.18;98264.73;221118;1279;25189;-73
2023/01/13 03:48:31;;;;;;;3.40;2.00;;;;;;;6.14;91.80;98271.02;221332;1278;24638;-73
2023/01/13 03:53:51;;;;;;;2.80;1.70;;;;;;;6.12;91.98;98279.81;221410;1279;22530;-73
2023/01/13 03:59:03;;;;;;;3.40;2.00;;;;;;;6.16;91.66;98270.06;221594;1279;22792;-74
2023/01/13 04:04:15;;;;;;;4.10;1.80;;;;;;;6.22;91.45;98264.36;221335;1278;22534;-74
2023/01/13 04:09:55;;;;;;;3.90;2.00;;;;;;;6.28;91.42;98264.38;221353;1278;22535;-73
2023/01/13 04:14:58;;;;;;;2.60;1.70;;;;;;;6.35;91.63;98272.54;221313;1279;22535;-74
2023/01/13 04:20:00;;;;;;;3.20;1.80;;;;;;;6.42;90.90;98274.23;221255;1279;24646;-73
2023/01/13 04:25:03;;;;;;;2.40;1.50;;;;;;;6.48;90.71;98270.10;221519;1279;22561;-74
2023/01/13 04:30:07;;;;;;;4.20;2.10;;;;;;;6.55;90.75;98263.61;221554;1279;22677;-74
2023/01/13 04:35:12;;;;;;;2.40;1.60;;;;;;;6.59;90.63;98257.38;221284;1278;22597;-74
2023/01/13 04:40:22;;;;;;;3.10;1.90;;;;;;;6.61;90.17;98257.79;221391;1276;22575;-74
2023/01/13 04:45:28;;;;;;;3.30;1.80;;;;;;;6.63;89.70;98270.39;221807;1279;22540;-74
2023/01/13 04:50:34;;;;;;;3.90;1.80;;;;;;;6.64;90.13;98260.80;221185;1279;25281;-74
2023/01/13 04:55:43;;;;;;;5.30;1.90;;;;;;;6.65;89.66;98257.61;221481;1279;22595;-74
2023/01/13 05:00:49;;;;;;;5.20;2.20;;;;;;;6.66;89.60;98256.11;221523;1279;24276;-76
2023/01/13 05:05:51;;;;;;;5.80;1.70;;;;;;;6.64;89.35;98256.54;221354;1278;22536;-74
2023/01/13 05:10:54;;;;;;;3.40;2.00;;;;;;;6.65;89.27;98260.42;221413;1279;23250;-74
2023/01/13 05:26:45;;;;;;;3.70;1.90;;;;;;;6.64;89.41;98249.30;221630;1279;23793;-73
2023/01/13 05:31:48;;;;;;;5.20;1.90;;;;;;;6.65;89.37;98249.41;221400;1279;25384;-74
2023/01/13 05:36:50;;;;;;;4.80;1.80;;;;;;;6.67;89.36;98251.32;221510;1276;23949;-72
2023/01/13 05:47:17;;;;;;;5.00;1.80;;;;;;;6.68;89.29;98252.89;221624;1278;23766;-74
2023/01/13 05:52:23;;;;;;;2.70;1.50;;;;;;;6.69;89.15;98258.38;221472;1279;22732;-73
2023/01/13 05:57:25;;;;;;;2.80;1.40;;;;;;;6.69;88.93;98249.39;221631;1278;23817;-74
2023/01/13 06:02:33;;;;;;;2.70;1.30;;;;;;;6.70;88.69;98251.45;221364;1276;22551;-73
2023/01/13 06:07:42;;;;;;;4.40;1.60;;;;;;;6.72;88.60;98257.84;221550;1276;25271;-74
2023/01/13 06:12:45;;;;;;;3.20;1.50;;;;;;;6.74;88.25;98258.61;221525;1279;22579;-72
2023/01/13 06:17:50;;;;;;;5.70;1.80;;;;;;;6.74;88.32;98258.09;221258;1279;22579;-74
2023/01/13 06:22:59;;;;;;;2.60;1.60;;;;;;;6.74;88.05;98255.59;221509;1279;22623;-74
2023/01/13 06:28:04;;;;;;;3.40;2.00;;;;;;;6.73;88.36;98251.86;221428;1279;25361;-74
2023/01/13 06:33:12;;;;;;;4.20;1.80;;;;;;;6.73;88.57;98256.56;222064;1276;25380;-74
2023/01/13 06:38:21;;;;;;;3.90;1.40;;;;;;;6.70;88.21;98257.84;221384;1267;22784;-74
2023/01/13 06:43:24;;;;;;;4.30;2.00;;;;;;;6.71;88.29;98256.55;222643;1269;139185;-73
2023/01/13 06:48:31;;;;;;;3.60;2.10;;;;;;;6.69;88.25;98251.14;221799;1272;138162;-74
2023/01/13 06:53:36;;;;;;;4.60;1.80;;;;;;;6.66;88.11;98244.66;222048;1274;138177;-73
2023/01/13 06:58:39;;;;;;;6.80;2.60;;;;;;;6.63;88.10;98243.83;221745;1266;138271;-73
2023/01/13 07:03:42;;;;;;;3.40;1.80;;;;;;;6.60;88.16;98263.06;221875;1263;140083;-73
2023/01/13 07:08:44;;;;;;;6.60;2.40;;;;;;;6.56;88.09;98268.63;221884;1273;24231;-72
2023/01/13 07:19:11;;;;;;;4.00;1.90;;;;;;;6.60;88.49;98268.39;221839;1273;138362;-73
2023/01/13 07:24:14;;;;;;;4.70;2.70;;;;;;;6.62;88.38;98270.07;221733;1272;138210;-73
2023/01/13 07:29:17;;;;;;;3.70;1.80;;;;;;;6.65;88.31;98270.91;221990;1273;138132;-73
2023/01/13 07:34:20;;;;;;;5.80;2.10;;;;;;;6.68;88.27;98263.65;222007;1272;138122;-73
2023/01/13 07:39:23;;;;;;;6.90;2.20;;;;;;;6.71;88.39;98260.23;221893;1274;26404;-74
2023/01/13 07:44:28;;;;;;;5.80;2.40;;;;;;;6.73;88.20;98263.58;221455;1280;137595;-73
2023/01/13 07:49:34;;;;;;;3.50;2.10;;;;;;;6.77;88.14;98260.30;221550;1273;138867;-74
2023/01/13 07:54:37;;;;;;;3.60;2.00;;;;;;;6.82;88.02;98257.20;221681;1279;138845;-74
2023/01/13 07:59:45;;;;;;;2.80;1.80;;;;;;;6.85;88.02;98252.23;221732;1278;139326;-73
2023/01/13 08:04:56;;;;;;;3.30;2.00;;;;;;;6.94;87.78;98260.20;221482;1279;260594;-73
2023/01/13 08:10:07;;;;;;;3.90;1.70;;;;;;;6.97;87.47;98267.15;221557;1273;138242;-73
2023/01/13 08:15:20;;;;;;;4.30;1.90;;;;;;;7.03;87.11;98266.25;221846;1274;22551;-73
2023/01/13 08:20:28;;;;;;;4.90;2.40;;;;;;;7.13;86.97;98269.17;221621;1276;137653;-74
2023/01/13 08:25:34;;;;;;;5.10;2.00;;;;;;;7.18;86.96;98278.73;221747;1279;137891;-72
2023/01/13 08:30:46;;;;;;;4.20;2.00;;;;;;;7.22;86.71;98277.41;221617;1276;138220;-72
2023/01/13 08:35:52;;;;;;;3.80;1.90;;;;;;;7.24;86.73;98269.95;221734;1272;138198;-75
2023/01/13 08:40:56;;;;;;;4.30;2.70;;;;;;;7.27;86.68;98260.65;221877;1273;138662;-73
2023/01/13 08:46:03;;;;;;;5.80;2.70;;;;;;;7.34;86.53;98259.75;221856;1264;138110;-73
2023/01/13 08:51:08;;;;;;;8.40;3.00;;;;;;;7.47;86.58;98277.42;221856;1275;22712;-73
2023/01/13 08:56:13;;;;;;;5.10;2.40;;;;;;;7.62;86.56;98281.35;221516;1257;137765;-75
2023/01/13 09:01:20;;;;;;;5.10;2.70;;;;;;;7.71;86.28;98276.05;222033;1274;137987;-73
2023/01/13 09:06:27;;;;;;;4.40;2.70;;;;;;;7.76;86.34;98288.80;221886;1272;138115;-73
2023/01/13 09:16:58;;;;;;;4.00;2.30;;;;;;;7.82;86.51;98284.21;221766;1278;138085;-73
2023/01/13 09:22:05;;;;;;;4.90;2.20;;;;;;;7.92;86.55;98285.38;221808;1273;138741;-73
2023/01/13 09:27:27;;;;;;;6.90;2.50;;;;;;;7.99;85.93;98280.35;221822;1275;22680;-73
2023/01/13 09:32:33;;;;;;;4.10;1.90;;;;;;;8.06;85.88;98274.94;221701;1269;138484;-73
2023/01/13 09:37:40;;;;;;;4.10;2.00;;;;;;;8.17;85.18;98261.96;222075;1272;138684;-73
2023/01/13 09:48:51;;;;;;;4.10;2.30;;;;;;;8.52;83.53;98251.52;221774;1275;138327;-73
2023/01/13 09:53:59;;;;;;;2.50;1.90;;;;;;;8.68;82.61;98236.05;221628;1269;138261;-73
2023/01/13 09:59:01;;;;;;;5.50;2.30;;;;;;;8.80;82.15;98244.57;221653;1272;138380;-74
2023/01/13 10:04:13;;;;;;;5.30;2.00;;;;;;;8.86;81.08;98247.65;222018;1267;138412;-74
2023/01/13 10:09:25;;;;;;;5.70;2.30;;;;;;;8.91;81.27;98237.70;221871;1267;23672;-73
2023/01/13 10:14:36;;;;;;;5.70;2.30;;;;;;;8.97;81.17;98225.36;222062;1272;138480;-74
2023/01/13 10:20:10;;;;;;;5.30;2.20;;;;;;;9.00;81.42;98214.56;221654;1258;138216;-73
2023/01/13 10:25:37;;;;;;;4.50;2.20;;;;;;;9.10;80.51;98211.59;221888;1264;138324;-72
2023/01/13 10:30:47;;;;;;;2.90;1.90;;;;;;;9.22;80.46;98220.16;221602;1279;138569;-73
2023/01/13 10:36:00;;;;;;;;;;;;;;;9.34;80.58;98221.52;221549;1275;138356;-72
2023/01/13 10:41:19;;;;;;;4.30;2.40;;;;;;;9.42;80.07;98217.90;221520;1275;124827;-73
2023/01/13 10:46:21;;;;;;;3.10;1.80;;;;;;;9.48;79.90;98211.33;221860;1272;138279;-73
2023/01/13 10:51:28;;;;;;;3.30;1.80;;;;;;;9.62;80.51;98201.50;221997;1274;22701;-72
2023/01/13 10:56:36;;;;;;;3.90;1.80;;;;;;;9.63;79.75;98196.29;221799;1270;137829;-75
2023/01/13 11:01:59;;;;;;;4.00;2.20;;;;;;;9.65;79.90;98193.27;221667;1269;138278;-73
2023/01/13 11:07:17;;;;;;;8.30;2.00;;;;;;;9.66;79.40;98196.23;222002;1269;138224;-73
2023/01/13 11:12:35;;;;;;;4.70;2.30;;;;;;;9.68;79.45;98196.41;221920;1272;138347;-73
2023/01/13 11:17:59;;;;;;;5.40;2.80;;;;;;;9.62;78.89;98196.09;221830;1272;138316;-73
2023/01/13 11:23:13;;;;;;;6.00;3.00;;;;;;;9.56;78.41;98203.86;221914;1272;138365;-72
2023/01/13 11:28:55;;;;;;;6.00;2.70;;;;;;;9.60;79.31;98197.48;221816;1275;138212;-72
2023/01/13 11:34:15;;;;;;;5.60;2.50;;;;;;;9.68;79.35;98187.98;221533;1272;138446;-75
2023/01/13 11:39:43;;;;;;;4.60;2.80;;;;;;;9.65;79.25;98187.29;221880;1272;22627;-73
2023/01/13 11:44:55;;;;;;;5.60;2.50;;;;;;;9.62;79.58;98181.02;221903;1276;22540;-72
2023/01/13 11:49:59;;;;;;;6.10;2.30;;;;;;;9.59;79.57;98176.96;221899;1272;138461;-74
2023/01/13 11:55:48;;;;;;;4.20;2.30;;;;;;;9.57;79.67;98174.86;221819;1272;138762;-73
2023/01/13 12:00:56;;;;;;;5.00;2.50;;;;;;;9.52;79.68;98175.64;222010;1272;138849;-75
2023/01/13 12:06:37;;;;;;;6.10;3.10;;;;;;;9.51;79.95;98175.45;221605;1278;138760;-73
2023/01/13 12:12:26;;;;;;;5.40;3.10;;;;;;;9.52;80.06;98178.76;221860;1272;138907;-75
2023/01/13 12:17:41;;;;;;;6.60;3.30;;;;;;;9.49;80.23;98175.70;221977;1273;139485;-73
2023/01/13 12:22:51;;;;;;;6.10;3.00;;;;;;;9.42;80.12;98166.35;221709;1265;138776;-73
2023/01/13 12:28:13;;;;;;;7.30;3.00;;;;;;;9.38;80.13;98165.73;221702;1272;138381;-74
2023/01/13 12:33:57;;;;;;;6.20;3.20;;;;;;;9.35;79.60;98169.27;221683;1260;22601;-73
2023/01/13 12:39:17;;;;;;;6.40;3.90;;;;;;;9.32;80.00;98168.95;221912;1273;22563;-74
2023/01/13 12:44:20;;;;;;;6.40;2.90;;;;;;;9.31;79.62;98172.70;222109;1272;138048;-74
2023/01/13 12:49:44;;;;;;;5.50;2.50;;;;;;;9.28;79.75;98170.98;221479;1272;138148;-75
2023/01/13 12:55:11;;;;;;;3.70;2.40;;;;;;;9.23;79.56;98164.40;221411;1265;138824;-73
2023/01/13 13:00:18;;;;;;;5.90;3.50;;;;;;;9.16;79.86;98164.69;221050;1262;138246;-73
2023/01/13 13:05:38;;;;;;;5.70;3.00;;;;;;;9.09;80.97;98165.54;220991;1280;138900;-73
2023/01/13 13:11:00;;;;;;;6.70;3.50;;;;;;;9.02;81.03;98166.13;221389;1276;138333;-74
2023/01/13 13:16:40;;;;;;;7.80;3.00;;;;;;;8.95;81.14;98162.67;221286;1276;138439;-73
2023/01/13 13:22:37;;;;;;;7.80;2.50;;;;;;;8.89;81.17;98164.20;222093;1260;22629;-72
2023/01/13 13:27:52;;;;;;;4.80;2.60;;;;;;;8.83;80.89;98167.08;221955;1260;24376;-73
2023/01/13 13:33:32;;;;;;;3.60;2.00;;;;;;;8.78;81.20;98170.85;221897;1275;24103;-74
2023/01/13 13:49:55;;;;;;;4.90;2.50;;;;;;;8.67;81.15;98156.80;221809;1272;138283;-72
2023/01/13 13:55:14;;;;;;;4.00;2.20;;;;;;;8.64;81.44;98156.73;221737;1275;138305;-72
2023/01/13 14:00:40;;;;;;;4.40;1.80;;;;;;;8.64;81.79;98165.55;221617;1275;138283;-72
2023/01/13 14:05:54;;;;;;;4.80;2.40;;;;;;;8.64;81.64;98166.03;222135;1272;138347;-72
2023/01/13 14:10:57;;;;;;;5.10;2.20;;;;;;;8.63;81.70;98169.40;222041;1266;138364;-73
2023/01/13 14:16:14;;;;;;;5.60;3.40;;;;;;;8.61;81.95;98174.36;221870;1272;141240;-73
2023/01/13 14:21:29;;;;;;;6.40;3.70;;;;;;;8.58;82.28;98182.14;222040;1272;22536;-73
2023/01/13 14:26:32;;;;;;;7.60;3.30;;;;;;;8.55;82.59;98183.67;222805;1275;138126;-74
2023/01/13 14:31:37;;;;;;;10.10;3.80;;;;;;;8.55;82.58;98184.54;221813;1271;138306;-73
2023/01/13 14:36:52;;;;;;;7.10;3.40;;;;;;;8.53;82.34;98184.45;221849;1272;138447;-72
2023/01/13 14:42:01;;;;;;;5.20;3.00;;;;;;;8.49;82.70;98180.39;221669;1265;138302;-72
2023/01/13 14:47:32;;;;;;;6.60;2.90;;;;;;;8.44;83.14;98184.88;221820;1261;138350;-73
2023/01/13 14:52:48;;;;;;;5.70;2.90;;;;;;;8.39;83.47;98191.35;221988;1272;139064;-74
2023/01/13 14:58:24;;;;;;;4.80;2.40;;;;;;;8.30;83.50;98195.38;221638;1262;138898;-73
2023/01/13 15:03:41;;;;;;;4.50;2.50;;;;;;;8.26;83.42;98211.64;221804;1274;22573;-74
2023/01/13 15:08:47;;;;;;;4.10;2.60;;;;;;;8.18;83.59;98205.23;221401;1279;25757;-74
2023/01/13 15:13:58;;;;;;;5.30;2.90;;;;;;;8.13;83.63;98208.11;221402;1278;22602;-73
2023/01/13 15:19:03;;;;;;;5.80;2.20;;;;;;;8.11;83.72;98212.73;221501;1278;24511;-73
2023/01/13 15:24:08;;;;;;;5.60;2.40;;;;;;;8.11;83.50;98209.10;221297;1279;22471;-72
2023/01/13 15:29:16;;;;;;;5.40;2.60;;;;;;;8.09;83.73;98203.54;221424;1279;22607;-74
2023/01/13 15:34:18;;;;;;;8.20;3.00;;;;;;;8.08;83.76;98211.97;221659;1275;24209;-74
2023/01/13 15:39:21;;;;;;;7.00;3.40;;;;;;;8.05;83.86;98223.05;221418;1278;24260;-72
2023/01/13 15:49:46;;;;;;;5.50;2.70;;;;;;;8.00;84.37;98232.81;221492;1276;22645;-75
2023/01/13 15:54:50;;;;;;;5.90;3.00;;;;;;;7.97;84.48;98237.16;221600;1273;22785;-73
2023/01/13 16:00:16;;;;;;;4.20;2.60;;;;;;;7.95;84.63;98242.74;221531;1279;22655;-73
2023/01/13 16:05:22;;;;;;;6.80;2.80;;;;;;;7.93;84.69;98234.85;221237;1279;25367;-74
2023/01/13 16:10:31;;;;;;;4.80;3.00;;;;;;;7.89;84.89;98245.48;221624;1273;22531;-73
2023/01/13 16:15:36;;;;;;;6.30;2.90;;;;;;;7.85;85.09;98251.54;221435;1279;22538;-73
2023/01/13 16:20:44;;;;;;;3.90;3.00;;;;;;;7.81;85.24;98254.45;221374;1257;24261;-72
2023/01/13 16:25:48;;;;;;;7.20;3.10;;;;;;;7.78;85.51;98251.39;221137;1279;25434;-73
2023/01/13 16:30:50;;;;;;;5.50;3.20;;;;;;;7.74;85.51;98257.83;221420;1279;22602;-74
2023/01/13 16:36:12;;;;;;;7.40;3.10;;;;;;;7.70;85.79;98256.70;221619;1279;22558;-73
2023/01/13 16:41:15;;;;;;;6.30;3.10;;;;;;;7.66;85.85;98260.20;221618;1278;23337;-73
2023/01/13 16:46:33;;;;;;;6.10;3.00;;;;;;;7.63;85.94;98258.52;221367;1271;22536;-74
2023/01/13 16:51:39;;;;;;;6.30;3.10;;;;;;;7.61;86.08;98259.94;221611;1269;23824;-72
2023/01/13 16:56:43;;;;;;;5.20;3.00;;;;;;;7.60;86.16;98259.73;221567;1279;25413;-73
2023/01/13 17:01:47;;;;;;;5.20;2.50;;;;;;;7.59;86.18;98259.48;221539;1275;24235;-75
2023/01/13 17:06:59;;;;;;;5.40;3.10;;;;;;;7.60;86.33;98259.15;221666;1272;22622;-73
2023/01/13 17:12:05;;;;;;;6.60;2.90;;;;;;;7.61;86.31;98266.48;221448;1278;22742;-73
2023/01/13 17:17:24;;;;;;;7.00;3.40;;;;;;;7.62;86.37;98262.42;221235;1279;22755;-74
2023/01/13 17:22:27;;;;;;;6.70;3.60;;;;;;;7.62;86.29;98271.23;221400;1269;22536;-74
2023/01/13 17:27:32;;;;;;;9.80;3.80;;;;;;;7.59;86.56;98272.21;221723;1279;24331;-74
2023/01/13 17:32:45;;;;;;;7.00;3.70;;;;;;;7.58;86.55;98279.14;221202;1277;22662;-73
2023/01/13 17:37:52;;;;;;;6.50;3.20;;;;;;;7.57;86.75;98274.73;221451;1275;22533;-74
2023/01/13 17:42:56;;;;;;;6.30;4.10;;;;;;;7.55;86.81;98281.36;221577;1278;22507;-74
2023/01/13 17:48:16;;;;;;;5.70;3.70;;;;;;;7.53;86.86;98291.61;221350;1279;24222;-73
2023/01/13 17:53:20;;;;;;;5.30;2.90;;;;;;;7.51;87.09;98301.45;221535;1278;22599;-73
2023/01/13 17:58:25;;;;;;;6.70;3.40;;;;;;;7.46;87.98;98306.59;221353;1279;23262;-73
2023/01/13 18:03:27;;;;;;;6.70;3.80;;;;;;;7.36;89.14;98312.38;221384;1275;22548;-75
2023/01/13 18:08:43;;;;;;;9.40;3.60;;;;;;;7.25;89.52;98319.91;221578;1278;22704;-73
2023/01/13 18:13:51;;;;;;;7.90;3.30;;;;;;;7.12;89.77;98324.20;221505;1274;23279;-73
2023/01/13 18:30:25;;;;;;;9.90;4.30;;;;;;;6.92;90.96;98339.30;221351;1278;25243;-74
2023/01/13 18:35:30;;;;;;;9.20;4.40;;;;;;;6.76;91.81;98333.46;220954;1272;22586;-73
2023/01/13 18:40:48;;;;;;;8.40;4.60;;;;;;;6.62;92.27;98338.27;221297;1275;25468;-74
2023/01/13 18:45:59;;;;;;;7.80;4.70;;;;;;;6.50;92.89;98343.90;221458;1279;23820;-74
2023/01/13 18:51:02;;;;;;;8.60;4.80;;;;;;;6.44;93.15;98360.48;221586;1262;24238;-76
2023/01/13 18:56:10;;;;;;;10.90;5.70;;;;;;;6.39;93.51;98372.58;221498;1278;23933;-74
2023/01/13 19:01:12;;;;;;;9.00;4.90;;;;;;;6.34;94.00;98375.50;221289;1256;22574;-75
2023/01/13 19:06:15;;;;;;;8.90;5.50;;;;;;;6.27;94.91;98374.25;221598;1278;24203;-74
2023/01/13 19:11:22;;;;;;;8.90;5.20;;;;;;;6.20;95.09;98380.01;221559;1278;25432;-74
2023/01/13 19:16:24;;;;;;;11.10;5.80;;;;;;;6.14;95.91;98381.72;221478;1262;23757;-74
2023/01/13 19:21:27;;;;;;;7.20;4.80;;;;;;;6.11;96.45;98392.26;221389;1279;22872;-75
2023/01/13 19:26:29;;;;;;;10.30;6.10;;;;;;;6.07;96.70;98405.13;221428;1278;22544;-74
2023/01/13 19:31:32;;;;;;;12.90;6.20;;;;;;;6.05;97.76;98411.73;221307;1279;22533;-73
2023/01/13 19:36:35;;;;;;;10.10;5.30;;;;;;;6.00;98.46;98403.06;221471;1278;26478;-73
2023/01/13 19:47:10;;;;;;;10.50;5.30;;;;;;;5.90;99.14;98412.92;221399;1279;22543;-74
2023/01/13 19:52:13;;;;;;;12.00;5.90;;;;;;;5.88;99.73;98402.34;221459;1276;24237;-76
2023/01/13 19:57:19;;;;;;;11.50;5.80;;;;;;;5.84;99.41;98395.54;221533;1278;25271;-73
2023/01/13 20:02:30;;;;;;;10.90;5.70;;;;;;;5.82;99.46;98395.86;221278;1279;22534;-73
2023/01/13 20:07:33;;;;;;;9.20;5.30;;;;;;;5.81;99.44;98402.88;221445;1278;162571;-73
2023/01/13 20:12:37;;;;;;;8.60;5.10;;;;;;;5.78;99.54;98410.86;221444;1278;22652;-74
2023/01/13 20:17:42;;;;;;;11.30;5.70;;;;;;;5.73;99.60;98419.25;221403;1278;25250;-74
2023/01/13 20:22:45;;;;;;;8.50;4.90;;;;;;;5.69;99.87;98427.05;221621;1273;22537;-76
2023/01/13 20:27:51;;;;;;;10.30;6.10;;;;;;;5.66;99.91;98436.19;221624;1279;22543;-74
2023/01/13 20:32:54;;;;;;;11.50;5.60;;;;;;;5.67;99.97;98441.02;221318;1278;22533;-74
2023/01/13 20:38:00;;;;;;;9.80;5.60;;;;;;;5.67;99.95;98448.99;221334;1279;23049;-73
2023/01/13 20:43:09;;;;;;;10.10;6.40;;;;;;;5.67;99.94;98450.12;221500;1279;22669;-73
2023/01/13 20:48:12;;;;;;;10.50;6.20;;;;;;;5.65;100.00;98455.65;221603;1279;25412;-73
2023/01/13 20:53:16;;;;;;;10.40;6.20;;;;;;;5.65;100.00;98452.23;221445;1279;22540;-74
2023/01/13 20:58:18;;;;;;;10.40;6.10;;;;;;;5.64;100.00;98466.86;221670;1278;24290;-74
2023/01/13 21:03:21;;;;;;;10.50;5.70;;;;;;;5.63;100.00;98473.92;221525;1278;25389;-74
2023/01/13 21:08:24;;;;;;;10.10;6.50;;;;;;;5.63;100.00;98478.77;221350;1279;22537;-74
2023/01/13 21:19:09;;;;;;;13.20;6.50;;;;;;;5.63;100.00;98477.33;221268;1278;24241;-74
2023/01/13 21:24:14;;;;;;;12.60;6.90;;;;;;;5.64;100.00;98482.65;221424;1262;25439;-73
2023/01/13 21:29:17;;;;;;;12.60;6.70;;;;;;;5.63;100.00;98489.14;221308;1278;23784;-74
2023/01/13 21:34:19;;;;;;;14.00;7.30;;;;;;;5.65;100.00;98501.83;221605;1278;24508;-75
2023/01/13 21:39:24;;;;;;;11.60;6.60;;;;;;;5.66;100.00;98506.19;221341;1278;25422;-74
2023/01/13 21:49:51;;;;;;;9.90;6.50;;;;;;;5.68;100.00;98519.65;221278;1279;22530;-72
2023/01/13 22:00:20;;;;;;;11.00;6.90;;;;;;;5.66;100.00;98520.23;221408;1278;22568;-75
2023/01/13 22:05:28;;;;;;;10.90;6.90;;;;;;;5.63;100.00;98524.38;221514;1278;23815;-77
2023/01/13 22:10:33;;;;;;;13.90;6.80;;;;;;;5.62;100.00;98521.13;221459;1278;25394;-74
2023/01/13 22:15:37;;;;;;;13.60;6.70;;;;;;;5.60;100.00;98527.13;221575;1279;24329;-75
2023/01/13 22:20:40;;;;;;;12.70;7.10;;;;;;;5.57;100.00;98516.96;221440;1277;24102;-74
2023/01/13 22:25:45;;;;;;;12.50;7.00;;;;;;;5.56;100.00;98527.11;221449;1279;25425;-74
2023/01/13 22:30:49;;;;;;;8.90;5.50;;;;;;;5.55;100.00;98531.56;221386;1279;24752;-74
2023/01/13 22:35:55;;;;;;;12.80;7.30;;;;;;;5.52;100.00;98532.63;221285;1278;22548;-74
2023/01/13 22:40:59;;;;;;;10.60;6.30;;;;;;;5.49;100.00;98533.04;221257;1279;22537;-73
2023/01/13 22:46:11;;;;;;;13.60;6.90;;;;;;;5.45;100.00;98538.51;221294;1279;22658;-74
2023/01/13 22:51:15;;;;;;;12.70;6.40;;;;;;;5.41;100.00;98544.17;221260;1279;23203;-74
2023/01/13 22:56:20;;;;;;;11.20;6.70;;;;;;;5.37;100.00;98548.72;221537;1279;26093;-73
2023/01/13 23:01:27;;;;;;;12.70;7.00;;;;;;;5.32;100.00;98551.14;222169;1278;24347;-75
2023/01/13 23:06:32;;;;;;;10.40;6.70;;;;;;;5.28;100.00;98557.45;221308;1279;22540;-74
2023/01/13 23:11:35;;;;;;;10.40;6.10;;;;;;;5.26;100.00;98552.13;221403;1278;23314;-73
2023/01/13 23:16:40;;;;;;;13.50;7.60;;;;;;;5.24;100.00;98550.70;221125;1279;24599;-73
2023/01/13 23:21:43;;;;;;;12.50;6.80;;;;;;;5.19;100.00;98555.48;221381;1278;22884;-74
2023/01/13 23:26:49;;;;;;;11.90;6.80;;;;;;;5.13;100.00;98564.55;221412;1270;22538;-74
2023/01/13 23:31:52;;;;;;;13.60;7.00;;;;;;;5.08;100.00;98571.75;221319;1279;22539;-73
2023/01/13 23:36:54;;;;;;;9.50;5.80;;;;;;;5.05;100.00;98576.88;221372;1279;22886;-73
2023/01/13 23:41:58;;;;;;;9.30;6.10;;;;;;;5.02;100.00;98577.59;221399;1279;24196;-74
2023/01/13 23:47:00;;;;;;;11.10;5.90;;;;;;;4.97;100.00;98584.84;221362;1279;23231;-73
2023/01/13 23:52:03;;;;;;;11.70;6.40;;;;;;;4.93;100.00;98585.77;221461;1279;22541;-73
2023/01/13 23:57:06;;;;;;;12.00;6.60;;;;;;;4.90;100.00;98585.21;221452;1279;22583;-74
